createdAt,value
2022-08-09T00:00:00.426Z,2.23
2022-08-09T00:02:28.981Z,2.60
2022-08-09T00:05:03.725Z,2.30
2022-08-09T00:07:44.416Z,2.30
2022-08-09T00:10:17.980Z,2.07
2022-08-09T00:12:51.503Z,2.37
2022-08-09T00:15:35.218Z,2.17
2022-08-09T00:18:12.119Z,2.10
2022-08-09T00:20:41.524Z,1.80
2022-08-09T00:23:57.339Z,1.93
2022-08-09T00:26:05.109Z,2.20
2022-08-09T00:28:32.319Z,2.33
2022-08-09T00:31:09.205Z,2.20
2022-08-09T00:33:53.490Z,2.00
2022-08-09T00:36:20.478Z,1.93
2022-08-09T00:38:50.558Z,2.00
2022-08-09T00:44:11.447Z,2.03
2022-08-09T00:44:15.930Z,1.80
2022-08-09T00:46:56.431Z,1.90
2022-08-09T00:49:28.563Z,2.10
2022-08-09T00:52:05.278Z,2.30
2022-08-09T00:54:35.306Z,1.90
2022-08-09T00:57:10.352Z,1.63
2022-08-09T00:59:46.511Z,2.03
2022-08-09T01:02:20.160Z,1.80
2022-08-09T01:04:53.032Z,2.27
2022-08-09T01:07:38.040Z,2.00
2022-08-09T01:10:28.953Z,1.73
2022-08-09T01:13:13.627Z,2.00
2022-08-09T01:15:52.013Z,1.80
2022-08-09T01:18:29.949Z,2.30
2022-08-09T01:20:57.583Z,1.80
2022-08-09T01:24:02.075Z,2.00
2022-08-09T01:26:33.358Z,2.23
2022-08-09T01:29:02.384Z,1.90
2022-08-09T01:32:43.965Z,2.03
2022-08-09T01:34:18.966Z,2.20
2022-08-09T01:36:48.713Z,2.27
2022-08-09T01:39:16.467Z,1.90
2022-08-09T01:41:53.525Z,1.90
2022-08-09T01:44:27.781Z,2.00
2022-08-09T01:46:54.707Z,2.10
2022-08-09T01:49:24.006Z,2.27
2022-08-09T01:52:07.489Z,2.10
2022-08-09T01:54:46.370Z,2.10
2022-08-09T01:57:17.069Z,2.03
2022-08-09T01:59:51.509Z,2.00
2022-08-09T02:02:30.117Z,1.73
2022-08-09T02:05:04.643Z,1.87
2022-08-09T02:08:40.802Z,1.70
2022-08-09T02:10:28.545Z,2.30
2022-08-09T02:12:57.499Z,1.90
2022-08-09T02:15:27.074Z,1.87
2022-08-09T02:18:14.735Z,1.90
2022-08-09T02:20:46.257Z,1.80
2022-08-09T02:23:49.061Z,2.00
2022-08-09T02:26:27.185Z,1.77
2022-08-09T02:29:00.240Z,1.80
2022-08-09T02:31:33.972Z,2.00
2022-08-09T02:34:13.876Z,1.80
2022-08-09T02:36:54.426Z,2.10
2022-08-09T02:39:34.080Z,2.03
2022-08-09T02:42:08.777Z,1.80
2022-08-09T02:44:37.736Z,2.00
2022-08-09T02:47:06.963Z,1.70
2022-08-09T02:49:41.337Z,2.03
2022-08-09T02:52:09.867Z,1.97
2022-08-09T02:54:54.353Z,1.77
2022-08-09T02:57:23.426Z,2.00
2022-08-09T03:00:20.591Z,1.93
2022-08-09T03:02:39.369Z,2.07
2022-08-09T03:05:25.384Z,2.23
2022-08-09T03:07:55.177Z,2.07
2022-08-09T03:10:24.010Z,1.90
2022-08-09T03:12:52.120Z,2.27
2022-08-09T03:15:20.867Z,2.27
2022-08-09T03:17:57.926Z,2.30
2022-08-09T03:20:29.478Z,2.00
2022-08-09T03:22:58.386Z,2.23
2022-08-09T03:25:58.116Z,2.10
2022-08-09T03:28:15.061Z,2.00
2022-08-09T03:30:43.954Z,2.30
2022-08-09T03:33:19.100Z,2.00
2022-08-09T03:36:12.849Z,2.03
2022-08-09T03:38:35.513Z,1.90
2022-08-09T03:41:04.285Z,2.30
2022-08-09T03:43:32.043Z,2.63
2022-08-09T03:46:19.835Z,2.10
2022-08-09T03:48:54.928Z,2.10
2022-08-09T03:51:55.888Z,2.33
2022-08-09T03:54:10.957Z,2.40
2022-08-09T03:56:41.789Z,2.70
2022-08-09T03:59:17.264Z,2.03
2022-08-09T04:01:49.400Z,2.50
2022-08-09T04:04:16.818Z,2.20
2022-08-09T04:06:44.126Z,2.30
2022-08-09T04:09:41.936Z,2.20
2022-08-09T04:12:11.833Z,2.20
2022-08-09T04:15:00.976Z,2.20
2022-08-09T04:17:27.102Z,2.07
2022-08-09T04:19:56.624Z,2.47
2022-08-09T04:22:23.559Z,2.33
2022-08-09T04:24:50.738Z,2.20
2022-08-09T04:27:22.076Z,2.40
2022-08-09T04:29:50.085Z,2.20
2022-08-09T04:32:23.748Z,2.20
2022-08-09T04:35:01.209Z,2.67
2022-08-09T04:37:45.156Z,2.33
2022-08-09T04:40:19.669Z,2.00
2022-08-09T04:43:01.050Z,1.90
2022-08-09T04:45:30.466Z,1.93
2022-08-09T04:48:03.153Z,1.97
2022-08-09T04:50:35.016Z,2.03
2022-08-09T04:53:12.995Z,2.20
2022-08-09T04:55:57.637Z,1.93
2022-08-09T04:58:29.821Z,1.90
2022-08-09T05:00:58.892Z,1.80
2022-08-09T05:03:40.682Z,2.00
2022-08-09T05:06:21.994Z,2.10
2022-08-09T05:09:04.836Z,2.07
2022-08-09T05:11:35.592Z,2.00
2022-08-09T05:14:06.268Z,1.70
2022-08-09T05:16:34.273Z,2.30
2022-08-09T05:19:24.404Z,2.13
2022-08-09T05:21:55.745Z,1.90
2022-08-09T05:24:24.297Z,2.00
2022-08-09T05:26:51.998Z,2.00
2022-08-09T05:29:23.969Z,1.83
2022-08-09T05:31:56.933Z,1.90
2022-08-09T05:34:30.018Z,2.00
2022-08-09T05:37:01.733Z,1.80
2022-08-09T05:39:36.309Z,1.70
2022-08-09T05:42:10.222Z,1.90
2022-08-09T05:44:45.049Z,1.90
2022-08-09T05:47:17.320Z,1.90
2022-08-09T05:50:35.156Z,1.90
2022-08-09T05:52:31.819Z,2.20
2022-08-09T05:55:02.966Z,2.00
2022-08-09T05:57:57.052Z,1.73
2022-08-09T06:00:21.986Z,2.03
2022-08-09T06:02:49.279Z,2.17
2022-08-09T06:05:49.714Z,2.20
2022-08-09T06:08:09.060Z,2.23
2022-08-09T06:10:40.598Z,1.90
2022-08-09T06:13:18.841Z,1.50
2022-08-09T06:15:47.568Z,2.10
2022-08-09T06:18:20.417Z,1.88
2022-08-09T06:20:56.458Z,2.00
2022-08-09T06:23:57.329Z,1.70
2022-08-09T06:26:13.483Z,1.90
2022-08-09T06:28:43.188Z,2.03
2022-08-09T06:31:10.616Z,1.60
2022-08-09T06:33:41.022Z,1.87
2022-08-09T06:36:09.519Z,2.00
2022-08-09T06:38:42.980Z,1.80
2022-08-09T06:41:18.827Z,1.50
2022-08-09T06:43:49.567Z,1.87
2022-08-09T06:46:40.132Z,1.80
2022-08-09T06:49:06.754Z,1.63
2022-08-09T06:51:40.054Z,1.83
2022-08-09T06:54:09.300Z,1.80
2022-08-09T06:56:45.573Z,1.80
2022-08-09T07:00:49.736Z,2.00
2022-08-09T07:02:04.414Z,1.90
2022-08-09T07:04:32.104Z,1.80
2022-08-09T07:07:00.079Z,1.80
2022-08-09T07:09:57.412Z,1.93
2022-08-09T07:12:17.892Z,1.93
2022-08-09T07:14:50.727Z,2.07
2022-08-09T07:17:19.545Z,1.90
2022-08-09T07:19:48.215Z,1.90
2022-08-09T07:22:18.286Z,2.00
2022-08-09T07:24:49.372Z,1.90
2022-08-09T07:27:33.438Z,1.70
2022-08-09T07:30:02.138Z,2.00
2022-08-09T07:32:32.402Z,1.83
2022-08-09T07:35:07.933Z,1.87
2022-08-09T07:37:43.457Z,1.60
2022-08-09T07:40:13.281Z,2.10
2022-08-09T07:42:54.715Z,1.73
2022-08-09T07:45:39.404Z,1.80
2022-08-09T07:48:28.781Z,1.90
2022-08-09T07:51:03.170Z,2.30
2022-08-09T07:54:05.043Z,1.60
2022-08-09T07:56:27.430Z,1.70
2022-08-09T07:58:54.708Z,1.40
2022-08-09T08:01:21.787Z,1.53
2022-08-09T08:04:00.246Z,1.50
2022-08-09T08:06:32.073Z,1.50
2022-08-09T08:09:04.582Z,1.40
2022-08-09T08:12:10.306Z,1.20
2022-08-09T08:14:19.054Z,1.43
2022-08-09T08:17:00.454Z,1.37
2022-08-09T08:19:32.100Z,1.20
2022-08-09T08:21:59.017Z,1.57
2022-08-09T08:24:27.124Z,1.37
2022-08-09T08:27:07.124Z,1.40
2022-08-09T08:29:45.259Z,1.40
2022-08-09T08:32:19.028Z,1.23
2022-08-09T08:34:59.010Z,2.00
2022-08-09T08:37:41.713Z,1.13
2022-08-09T08:40:13.761Z,1.47
2022-08-09T08:42:43.393Z,1.40
2022-08-09T08:45:14.508Z,1.60
2022-08-09T08:47:44.700Z,1.50
2022-08-09T08:50:15.540Z,2.00
2022-08-09T08:52:58.358Z,1.50
2022-08-09T08:55:27.408Z,1.80
2022-08-09T08:57:56.839Z,1.50
2022-08-09T09:00:27.839Z,1.80
2022-08-09T09:03:02.840Z,1.80
2022-08-09T09:06:01.063Z,1.57
2022-08-09T09:08:29.743Z,1.97
2022-08-09T09:11:01.040Z,1.73
2022-08-09T09:13:41.556Z,1.90
2022-08-09T09:16:16.081Z,1.57
2022-08-09T09:18:48.121Z,1.80
2022-08-09T09:21:25.925Z,1.70
2022-08-09T09:23:57.362Z,1.83
2022-08-09T09:26:25.987Z,1.60
2022-08-09T09:29:04.598Z,1.70
2022-08-09T09:32:07.129Z,2.07
2022-08-09T09:34:24.401Z,1.87
2022-08-09T09:36:56.538Z,1.80
2022-08-09T09:39:42.779Z,1.80
2022-08-09T09:42:21.473Z,2.07
2022-08-09T09:44:54.742Z,1.93
2022-08-09T09:47:21.800Z,1.80
2022-08-09T09:50:13.848Z,1.80
2022-08-09T09:52:52.326Z,1.90
2022-08-09T09:55:28.809Z,1.97
2022-08-09T09:58:16.470Z,1.90
2022-08-09T10:00:54.171Z,2.17
2022-08-09T10:03:38.392Z,2.00
2022-08-09T10:06:06.921Z,2.37
2022-08-09T10:08:54.413Z,1.93
2022-08-09T10:11:59.894Z,2.20
2022-08-09T10:14:33.401Z,1.93
2022-08-09T10:17:40.473Z,2.00
2022-08-09T10:20:00.341Z,2.23
2022-08-09T10:22:33.038Z,1.90
2022-08-09T10:25:03.545Z,2.00
2022-08-09T10:27:57.228Z,2.00
2022-08-09T10:33:29.959Z,1.80
2022-08-09T10:36:01.017Z,2.07
2022-08-09T10:38:54.912Z,2.07
2022-08-09T10:41:18.569Z,2.20
2022-08-09T10:43:59.907Z,2.00
2022-08-09T10:46:55.630Z,1.88
2022-08-09T10:49:51.339Z,1.92
2022-08-09T10:52:20.761Z,1.90
2022-08-09T10:54:48.893Z,1.60
2022-08-09T10:57:17.162Z,2.42
2022-08-09T10:59:57.647Z,1.92
2022-08-09T11:03:11.676Z,1.77
2022-08-09T11:05:30.518Z,2.03
2022-08-09T11:08:18.058Z,2.00
2022-08-09T11:11:08.600Z,1.80
2022-08-09T11:13:51.183Z,1.73
2022-08-09T11:16:37.247Z,1.70
2022-08-09T11:19:07.909Z,2.00
2022-08-09T11:21:56.821Z,1.75
2022-08-09T11:24:51.250Z,1.67
2022-08-09T11:28:04.069Z,1.83
2022-08-09T11:30:33.594Z,2.00
2022-08-09T11:33:30.485Z,2.03
2022-08-09T11:36:01.199Z,2.00
2022-08-09T11:38:28.842Z,1.60
2022-08-09T11:41:13.443Z,1.75
2022-08-09T11:43:47.125Z,1.73
2022-08-09T11:46:26.580Z,1.77
2022-08-09T11:49:00.180Z,1.60
2022-08-09T11:53:04.258Z,1.90
2022-08-09T11:54:27.951Z,1.80
2022-08-09T11:57:17.751Z,1.60
2022-08-09T11:59:55.348Z,1.60
2022-08-09T12:02:37.054Z,1.85
2022-08-09T12:05:07.978Z,1.90
2022-08-09T12:07:44.781Z,1.85
2022-08-09T12:10:14.469Z,1.77
2022-08-09T12:13:00.180Z,1.88
2022-08-09T12:15:49.778Z,1.75
2022-08-09T12:18:30.089Z,1.73
2022-08-09T12:21:02.586Z,1.70
2022-08-09T12:23:56.317Z,1.50
2022-08-09T12:26:19.777Z,1.60
2022-08-09T12:29:15.216Z,1.30
2022-08-09T12:31:59.031Z,1.50
2022-08-09T12:34:38.780Z,1.90
2022-08-09T12:37:22.288Z,1.50
2022-08-09T12:40:02.109Z,1.40
2022-08-09T12:42:30.164Z,1.70
2022-08-09T12:44:57.426Z,1.70
2022-08-09T12:47:26.425Z,1.67
2022-08-09T12:50:12.029Z,1.48
2022-08-09T12:52:42.889Z,1.63
2022-08-09T12:56:13.814Z,1.40
2022-08-09T12:58:24.117Z,1.65
2022-08-09T13:00:54.059Z,1.75
2022-08-09T13:03:54.051Z,1.42
2022-08-09T13:06:25.582Z,1.48
2022-08-09T13:09:02.322Z,1.73
2022-08-09T13:11:33.765Z,1.40
2022-08-09T13:14:42.268Z,1.55
2022-08-09T13:16:49.847Z,1.80
2022-08-09T13:20:07.248Z,1.50
2022-08-09T13:22:37.695Z,1.67
2022-08-09T13:25:08.108Z,1.77
2022-08-09T13:27:48.645Z,1.63
2022-08-09T13:31:11.493Z,1.85
2022-08-09T13:33:11.513Z,1.70
2022-08-09T13:36:38.658Z,1.50
2022-08-09T13:38:54.168Z,1.73
2022-08-09T13:41:54.896Z,1.60
2022-08-09T13:43:59.437Z,1.60
2022-08-09T13:47:16.799Z,1.70
2022-08-09T13:49:18.289Z,1.57
2022-08-09T13:52:01.006Z,2.03
2022-08-09T13:54:30.306Z,1.60
2022-08-09T13:56:57.417Z,1.57
2022-08-09T13:59:25.720Z,1.83
2022-08-09T14:02:04.283Z,1.67
2022-08-09T14:04:31.298Z,1.90
2022-08-09T14:06:59.501Z,1.83
2022-08-09T14:09:26.741Z,1.53
2022-08-09T14:11:54.940Z,1.50
2022-08-09T14:14:26.172Z,1.70
2022-08-09T14:16:54.466Z,1.80
2022-08-09T14:19:21.309Z,1.50
2022-08-09T14:21:49.666Z,1.80
2022-08-09T14:24:18.575Z,1.80
2022-08-09T14:26:51.933Z,2.20
2022-08-09T14:30:15.170Z,2.10
2022-08-09T14:32:11.080Z,1.80
2022-08-09T14:34:40.977Z,2.07
2022-08-09T14:37:08.341Z,2.07
2022-08-09T14:39:45.330Z,1.83
2022-08-09T14:42:30.123Z,2.13
2022-08-09T14:46:40.362Z,1.87
2022-08-09T14:47:58.249Z,2.13
2022-08-09T14:50:27.507Z,2.57
2022-08-09T14:52:54.604Z,1.90
2022-08-09T14:55:21.569Z,1.70
2022-08-09T14:57:48.947Z,2.20
2022-08-09T15:00:16.321Z,2.17
2022-08-09T15:02:47.730Z,2.23
2022-08-09T15:05:19.619Z,2.10
2022-08-09T15:07:56.040Z,1.93
2022-08-09T15:10:24.993Z,2.07
2022-08-09T15:12:55.746Z,1.90
2022-08-09T15:15:23.452Z,2.00
2022-08-09T15:17:52.774Z,2.17
2022-08-09T15:21:56.278Z,2.00
2022-08-09T15:24:01.447Z,2.20
2022-08-09T15:25:58.307Z,2.00
2022-08-09T15:28:27.735Z,2.30
2022-08-09T15:31:08.773Z,2.93
2022-08-09T15:34:16.229Z,2.10
2022-08-09T15:36:30.098Z,2.30
2022-08-09T15:38:58.024Z,2.20
2022-08-09T15:41:31.291Z,1.83
2022-08-09T15:43:58.720Z,2.10
2022-08-09T15:46:33.381Z,1.93
2022-08-09T15:49:23.101Z,1.93
2022-08-09T15:52:03.129Z,1.97
2022-08-09T15:54:43.104Z,1.90
2022-08-09T15:57:13.514Z,1.90
2022-08-09T15:59:40.601Z,2.07
2022-08-09T16:02:09.344Z,2.00
2022-08-09T16:04:40.166Z,2.27
2022-08-09T16:07:09.878Z,2.27
2022-08-09T16:09:57.602Z,1.83
2022-08-09T16:12:26.272Z,2.23
2022-08-09T16:14:58.025Z,1.70
2022-08-09T16:17:28.652Z,2.10
2022-08-09T16:20:05.051Z,2.10
2022-08-09T16:22:42.115Z,1.90
2022-08-09T16:25:09.773Z,2.20
2022-08-09T16:27:38.312Z,2.23
2022-08-09T16:30:15.273Z,2.33
2022-08-09T16:33:11.414Z,2.07
2022-08-09T16:35:56.538Z,2.40
2022-08-09T16:38:25.476Z,2.40
2022-08-09T16:40:52.387Z,2.40
2022-08-09T16:43:21.023Z,2.30
2022-08-09T16:45:48.144Z,2.57
2022-08-09T16:48:39.216Z,2.60
2022-08-09T16:51:13.912Z,2.40
2022-08-09T16:54:02.428Z,2.53
2022-08-09T16:56:30.458Z,2.20
2022-08-09T16:58:58.729Z,2.60
2022-08-09T17:01:25.812Z,2.50
2022-08-09T17:03:53.008Z,2.67
2022-08-09T17:06:31.122Z,2.87
2022-08-09T17:09:13.600Z,4.20
2022-08-09T17:11:51.416Z,2.77
2022-08-09T17:14:27.017Z,2.50
2022-08-09T17:17:01.192Z,2.30
2022-08-09T17:19:46.795Z,2.60
2022-08-09T17:22:16.341Z,2.83
2022-08-09T17:24:55.618Z,3.87
2022-08-09T17:27:23.091Z,3.30
2022-08-09T17:29:51.024Z,3.73
2022-08-09T17:32:34.714Z,3.60
2022-08-09T17:35:11.423Z,3.83
2022-08-09T17:38:12.510Z,3.83
2022-08-09T17:40:33.183Z,3.40
2022-08-09T17:43:10.761Z,4.13
2022-08-09T17:46:04.184Z,3.63
2022-08-09T17:48:34.156Z,3.40
2022-08-09T17:51:08.958Z,3.60
2022-08-09T17:53:47.953Z,3.30
2022-08-09T17:56:20.425Z,3.30
2022-08-09T17:58:47.307Z,3.67
2022-08-09T18:01:15.606Z,3.90
2022-08-09T18:03:50.938Z,3.43
2022-08-09T18:06:31.227Z,3.30
2022-08-09T18:09:03.554Z,3.70
2022-08-09T18:11:46.927Z,4.00
2022-08-09T18:14:20.159Z,4.23
2022-08-09T18:16:48.748Z,4.20
2022-08-09T18:20:53.735Z,3.90
2022-08-09T18:22:04.289Z,3.50
2022-08-09T18:24:31.268Z,3.60
2022-08-09T18:26:58.302Z,3.80
2022-08-09T18:30:35.403Z,3.57
2022-08-09T18:32:19.121Z,4.30
2022-08-09T18:34:46.127Z,4.40
2022-08-09T18:37:49.195Z,3.07
2022-08-09T18:40:05.303Z,3.17
2022-08-09T18:42:33.289Z,2.43
2022-08-09T18:45:01.145Z,2.70
2022-08-09T18:47:37.098Z,2.83
2022-08-09T18:50:05.927Z,2.50
2022-08-09T18:52:36.123Z,2.30
2022-08-09T18:55:03.940Z,2.20
2022-08-09T18:57:42.921Z,2.50
2022-08-09T19:00:11.547Z,2.37
2022-08-09T19:02:44.026Z,2.20
2022-08-09T19:05:19.624Z,2.00
2022-08-09T19:07:59.098Z,2.03
2022-08-09T19:10:37.300Z,2.10
2022-08-09T19:13:22.083Z,1.90
2022-08-09T19:15:49.969Z,2.00
2022-08-09T19:18:37.420Z,1.80
2022-08-09T19:21:08.827Z,2.30
2022-08-09T19:24:31.948Z,2.00
2022-08-09T19:26:31.323Z,1.70
2022-08-09T19:29:01.853Z,1.93
2022-08-09T19:31:30.442Z,1.97
2022-08-09T19:34:22.062Z,2.03
2022-08-09T19:36:55.996Z,2.03
2022-08-09T19:39:43.930Z,2.10
2022-08-09T19:42:15.197Z,1.90
2022-08-09T19:44:49.253Z,2.03
2022-08-09T19:47:22.762Z,2.03
2022-08-09T19:50:07.709Z,2.10
2022-08-09T19:52:38.325Z,1.90
2022-08-09T19:55:19.500Z,2.30
2022-08-09T19:57:52.415Z,2.00
2022-08-09T20:00:19.359Z,1.97
2022-08-09T20:04:10.092Z,2.20
2022-08-09T20:05:46.454Z,1.90
2022-08-09T20:08:16.196Z,2.20
2022-08-09T20:11:02.478Z,2.17
2022-08-09T20:13:32.250Z,2.17
2022-08-09T20:16:37.770Z,2.23
2022-08-09T20:19:41.901Z,2.20
2022-08-09T20:21:55.230Z,2.00
2022-08-09T20:24:29.865Z,2.10
2022-08-09T20:27:01.114Z,1.80
2022-08-09T20:29:32.689Z,2.30
2022-08-09T20:32:30.027Z,1.70
2022-08-09T20:34:52.471Z,2.10
2022-08-09T20:37:21.422Z,1.73
2022-08-09T20:40:15.743Z,1.83
2022-08-09T20:42:37.926Z,2.00
2022-08-09T20:46:00.610Z,1.50
2022-08-09T20:47:55.099Z,1.90
2022-08-09T20:50:47.917Z,2.00
2022-08-09T20:53:35.641Z,2.00
2022-08-09T20:56:02.582Z,2.30
2022-08-09T20:58:32.611Z,1.80
2022-08-09T21:01:02.468Z,1.97
2022-08-09T21:05:48.749Z,2.03
2022-08-09T21:06:29.389Z,1.90
2022-08-09T21:08:58.471Z,1.93
2022-08-09T21:14:12.421Z,2.00
2022-08-09T21:16:39.443Z,2.00
2022-08-09T21:20:18.481Z,1.90
2022-08-09T21:21:56.594Z,2.30
2022-08-09T21:24:29.004Z,2.40
2022-08-09T21:26:59.642Z,2.37
2022-08-09T21:29:26.770Z,2.30
2022-08-09T21:31:54.321Z,2.80
2022-08-09T21:34:29.684Z,2.30
2022-08-09T21:36:56.816Z,2.27
2022-08-09T21:39:28.178Z,2.20
2022-08-09T21:42:10.644Z,2.43
2022-08-09T21:44:38.330Z,2.50
2022-08-09T21:47:07.604Z,2.10
2022-08-09T21:49:40.197Z,2.57
2022-08-09T21:52:16.944Z,2.07
2022-08-09T21:55:03.302Z,2.33
2022-08-09T21:57:38.971Z,2.00
2022-08-09T22:00:25.401Z,2.67
2022-08-09T22:02:59.368Z,2.47
2022-08-09T22:05:36.137Z,2.27
2022-08-09T22:08:05.571Z,2.30
2022-08-09T22:10:32.388Z,2.20
2022-08-09T22:13:00.220Z,2.20
2022-08-09T22:15:35.260Z,2.10
2022-08-09T22:18:03.972Z,2.30
2022-08-09T22:20:31.528Z,2.20
2022-08-09T22:22:58.491Z,2.60
2022-08-09T22:26:05.757Z,2.13
2022-08-09T22:28:12.543Z,2.07
2022-08-09T22:30:48.595Z,2.20
2022-08-09T22:33:17.196Z,2.07
2022-08-09T22:36:01.493Z,2.17
2022-08-09T22:38:30.468Z,2.13
2022-08-09T22:40:58.626Z,2.10
2022-08-09T22:44:03.474Z,2.60
2022-08-09T22:48:11.473Z,2.23
2022-08-09T22:49:10.205Z,2.30
2022-08-09T22:51:39.342Z,2.03
2022-08-09T22:54:08.025Z,1.90
2022-08-09T22:56:41.357Z,2.20
2022-08-09T22:59:56.835Z,1.90
2022-08-09T23:01:55.805Z,2.00
2022-08-09T23:04:25.594Z,1.70
2022-08-09T23:07:13.982Z,2.10
2022-08-09T23:09:43.037Z,1.97
2022-08-09T23:12:09.904Z,2.03
2022-08-09T23:14:41.308Z,1.93
2022-08-09T23:17:09.107Z,1.87
2022-08-09T23:20:06.150Z,2.30
2022-08-09T23:22:22.786Z,2.13
2022-08-09T23:24:49.743Z,2.00
2022-08-09T23:27:16.633Z,2.20
2022-08-09T23:29:43.563Z,1.87
2022-08-09T23:32:10.424Z,2.10
2022-08-09T23:34:37.643Z,1.93
2022-08-09T23:37:04.677Z,1.93
2022-08-09T23:39:31.547Z,2.10
2022-08-09T23:41:58.608Z,2.17
2022-08-09T23:44:25.393Z,1.80
2022-08-09T23:46:52.690Z,1.90
2022-08-09T23:49:24.773Z,1.90
2022-08-09T23:51:52.121Z,1.90
2022-08-09T23:54:19.817Z,2.10
2022-08-09T23:56:54.666Z,2.10
2022-08-09T23:59:23.128Z,1.77
